sensor_id;sensor_type;location;lat;lon;timestamp;temperature;humidity
36002;DHT22;22070;50.922;5.430;2022-07-22T00:00:23;17.70;99.90
36002;DHT22;22070;50.922;5.430;2022-07-22T00:02:49;17.80;99.90
36002;DHT22;22070;50.922;5.430;2022-07-22T00:05:14;17.70;99.90
36002;DHT22;22070;50.922;5.430;2022-07-22T00:07:40;17.50;99.90
36002;DHT22;22070;50.922;5.430;2022-07-22T00:10:08;17.30;99.90
36002;DHT22;22070;50.922;5.430;2022-07-22T00:12:36;17.30;99.90
36002;DHT22;22070;50.922;5.430;2022-07-22T00:15:03;17.40;99.90
36002;DHT22;22070;50.922;5.430;2022-07-22T00:17:28;17.40;99.90
36002;DHT22;22070;50.922;5.430;2022-07-22T00:19:54;17.40;99.90
36002;DHT22;22070;50.922;5.430;2022-07-22T00:22:20;17.30;99.90
36002;DHT22;22070;50.922;5.430;2022-07-22T00:24:45;17.10;99.90
36002;DHT22;22070;50.922;5.430;2022-07-22T00:27:11;17.00;99.90
36002;DHT22;22070;50.922;5.430;2022-07-22T00:29:37;17.10;99.90
36002;DHT22;22070;50.922;5.430;2022-07-22T00:32:02;16.90;99.90
36002;DHT22;22070;50.922;5.430;2022-07-22T00:34:28;16.80;99.90
36002;DHT22;22070;50.922;5.430;2022-07-22T00:36:54;16.60;99.90
36002;DHT22;22070;50.922;5.430;2022-07-22T00:39:20;16.40;99.90
36002;DHT22;22070;50.922;5.430;2022-07-22T00:41:47;16.20;99.90
36002;DHT22;22070;50.922;5.430;2022-07-22T00:44:14;16.10;99.90
36002;DHT22;22070;50.922;5.430;2022-07-22T00:46:39;16.00;99.90
36002;DHT22;22070;50.922;5.430;2022-07-22T00:49:06;16.10;99.90
36002;DHT22;22070;50.922;5.430;2022-07-22T00:51:32;16.00;99.90
36002;DHT22;22070;50.922;5.430;2022-07-22T00:54:00;15.90;99.90
36002;DHT22;22070;50.922;5.430;2022-07-22T00:56:27;15.90;99.90
36002;DHT22;22070;50.922;5.430;2022-07-22T00:58:54;15.80;99.90
36002;DHT22;22070;50.922;5.430;2022-07-22T01:01:20;15.80;99.90
36002;DHT22;22070;50.922;5.430;2022-07-22T01:03:46;15.80;99.90
36002;DHT22;22070;50.922;5.430;2022-07-22T01:06:12;15.70;99.90
36002;DHT22;22070;50.922;5.430;2022-07-22T01:08:38;15.90;99.90
36002;DHT22;22070;50.922;5.430;2022-07-22T01:11:09;15.80;99.90
36002;DHT22;22070;50.922;5.430;2022-07-22T01:13:35;15.50;99.90
36002;DHT22;22070;50.922;5.430;2022-07-22T01:16:02;15.50;99.90
36002;DHT22;22070;50.922;5.430;2022-07-22T01:18:28;15.50;99.90
36002;DHT22;22070;50.922;5.430;2022-07-22T01:20:53;15.40;99.90
36002;DHT22;22070;50.922;5.430;2022-07-22T01:23:19;15.30;99.90
36002;DHT22;22070;50.922;5.430;2022-07-22T01:25:45;15.30;99.90
36002;DHT22;22070;50.922;5.430;2022-07-22T01:28:10;15.30;99.90
36002;DHT22;22070;50.922;5.430;2022-07-22T01:30:36;15.30;99.90
36002;DHT22;22070;50.922;5.430;2022-07-22T01:33:02;15.20;99.90
36002;DHT22;22070;50.922;5.430;2022-07-22T01:35:27;15.30;99.90
36002;DHT22;22070;50.922;5.430;2022-07-22T01:37:53;15.50;99.90
36002;DHT22;22070;50.922;5.430;2022-07-22T01:40:18;15.50;99.90
36002;DHT22;22070;50.922;5.430;2022-07-22T01:42:44;15.50;99.90
36002;DHT22;22070;50.922;5.430;2022-07-22T01:45:10;15.50;99.90
36002;DHT22;22070;50.922;5.430;2022-07-22T01:47:36;15.50;99.90
36002;DHT22;22070;50.922;5.430;2022-07-22T01:50:03;15.40;99.90
36002;DHT22;22070;50.922;5.430;2022-07-22T01:52:29;15.40;99.90
36002;DHT22;22070;50.922;5.430;2022-07-22T01:54:54;15.40;99.90
36002;DHT22;22070;50.922;5.430;2022-07-22T01:57:20;15.50;99.90
36002;DHT22;22070;50.922;5.430;2022-07-22T01:59:46;15.50;99.90
36002;DHT22;22070;50.922;5.430;2022-07-22T02:02:11;15.40;99.90
36002;DHT22;22070;50.922;5.430;2022-07-22T02:04:37;15.40;99.90
36002;DHT22;22070;50.922;5.430;2022-07-22T02:07:02;15.40;99.90
36002;DHT22;22070;50.922;5.430;2022-07-22T02:09:29;15.30;99.90
36002;DHT22;22070;50.922;5.430;2022-07-22T02:11:54;15.20;99.90
36002;DHT22;22070;50.922;5.430;2022-07-22T02:14:20;15.20;99.90
36002;DHT22;22070;50.922;5.430;2022-07-22T02:16:45;15.20;99.90
36002;DHT22;22070;50.922;5.430;2022-07-22T02:19:11;15.30;99.90
36002;DHT22;22070;50.922;5.430;2022-07-22T02:21:37;15.20;99.90
36002;DHT22;22070;50.922;5.430;2022-07-22T02:24:03;15.20;99.90
36002;DHT22;22070;50.922;5.430;2022-07-22T02:26:29;15.30;99.90
36002;DHT22;22070;50.922;5.430;2022-07-22T02:28:55;15.30;99.90
36002;DHT22;22070;50.922;5.430;2022-07-22T02:31:20;15.30;99.90
36002;DHT22;22070;50.922;5.430;2022-07-22T02:33:46;15.20;99.90
36002;DHT22;22070;50.922;5.430;2022-07-22T02:36:12;15.20;99.90
36002;DHT22;22070;50.922;5.430;2022-07-22T02:38:38;15.20;99.90
36002;DHT22;22070;50.922;5.430;2022-07-22T02:41:04;15.20;99.90
36002;DHT22;22070;50.922;5.430;2022-07-22T02:43:29;15.30;99.90
36002;DHT22;22070;50.922;5.430;2022-07-22T02:45:55;15.30;99.90
36002;DHT22;22070;50.922;5.430;2022-07-22T02:48:20;15.50;99.90
36002;DHT22;22070;50.922;5.430;2022-07-22T02:50:47;15.60;99.90
36002;DHT22;22070;50.922;5.430;2022-07-22T02:53:13;15.60;99.90
36002;DHT22;22070;50.922;5.430;2022-07-22T02:55:38;15.40;99.90
36002;DHT22;22070;50.922;5.430;2022-07-22T02:58:08;15.60;99.90
36002;DHT22;22070;50.922;5.430;2022-07-22T03:00:35;15.60;99.90
36002;DHT22;22070;50.922;5.430;2022-07-22T03:03:03;15.60;99.90
36002;DHT22;22070;50.922;5.430;2022-07-22T03:05:29;15.50;99.90
36002;DHT22;22070;50.922;5.430;2022-07-22T03:07:55;15.40;99.90
36002;DHT22;22070;50.922;5.430;2022-07-22T03:10:20;15.40;99.90
36002;DHT22;22070;50.922;5.430;2022-07-22T03:12:46;15.40;99.90
36002;DHT22;22070;50.922;5.430;2022-07-22T03:15:11;15.30;99.90
36002;DHT22;22070;50.922;5.430;2022-07-22T03:17:37;15.20;99.90
36002;DHT22;22070;50.922;5.430;2022-07-22T03:20:08;15.30;99.90
36002;DHT22;22070;50.922;5.430;2022-07-22T03:22:34;15.30;99.90
36002;DHT22;22070;50.922;5.430;2022-07-22T03:25:00;15.30;99.90
36002;DHT22;22070;50.922;5.430;2022-07-22T03:27:26;15.40;99.90
36002;DHT22;22070;50.922;5.430;2022-07-22T03:29:52;15.50;99.90
36002;DHT22;22070;50.922;5.430;2022-07-22T03:32:17;15.50;99.90
36002;DHT22;22070;50.922;5.430;2022-07-22T03:34:43;15.60;99.90
36002;DHT22;22070;50.922;5.430;2022-07-22T03:37:09;15.50;99.90
36002;DHT22;22070;50.922;5.430;2022-07-22T03:39:35;15.40;99.90
36002;DHT22;22070;50.922;5.430;2022-07-22T03:42:00;15.30;99.90
36002;DHT22;22070;50.922;5.430;2022-07-22T03:44:26;15.30;99.90
36002;DHT22;22070;50.922;5.430;2022-07-22T03:46:52;15.40;99.90
36002;DHT22;22070;50.922;5.430;2022-07-22T03:49:17;15.30;99.90
36002;DHT22;22070;50.922;5.430;2022-07-22T03:51:43;15.30;99.90
36002;DHT22;22070;50.922;5.430;2022-07-22T03:54:09;15.40;99.90
36002;DHT22;22070;50.922;5.430;2022-07-22T03:56:34;15.40;99.90
36002;DHT22;22070;50.922;5.430;2022-07-22T03:59:00;15.40;99.90
36002;DHT22;22070;50.922;5.430;2022-07-22T04:01:26;15.30;99.90
36002;DHT22;22070;50.922;5.430;2022-07-22T04:03:52;15.30;99.90
36002;DHT22;22070;50.922;5.430;2022-07-22T04:06:17;15.20;99.90
36002;DHT22;22070;50.922;5.430;2022-07-22T04:08:43;15.30;99.90
36002;DHT22;22070;50.922;5.430;2022-07-22T04:11:09;15.20;99.90
36002;DHT22;22070;50.922;5.430;2022-07-22T04:13:34;15.20;99.90
36002;DHT22;22070;50.922;5.430;2022-07-22T04:16:00;15.30;99.90
36002;DHT22;22070;50.922;5.430;2022-07-22T04:18:26;15.20;99.90
36002;DHT22;22070;50.922;5.430;2022-07-22T04:20:51;15.20;99.90
36002;DHT22;22070;50.922;5.430;2022-07-22T04:23:17;15.20;99.90
36002;DHT22;22070;50.922;5.430;2022-07-22T04:25:43;15.40;99.90
36002;DHT22;22070;50.922;5.430;2022-07-22T04:28:09;15.40;99.90
36002;DHT22;22070;50.922;5.430;2022-07-22T04:30:35;15.40;99.90
36002;DHT22;22070;50.922;5.430;2022-07-22T04:33:00;15.60;99.90
36002;DHT22;22070;50.922;5.430;2022-07-22T04:35:26;15.60;99.90
36002;DHT22;22070;50.922;5.430;2022-07-22T04:37:52;15.60;99.90
36002;DHT22;22070;50.922;5.430;2022-07-22T04:40:17;15.60;99.90
36002;DHT22;22070;50.922;5.430;2022-07-22T04:42:43;15.70;99.90
36002;DHT22;22070;50.922;5.430;2022-07-22T04:45:09;15.80;99.90
36002;DHT22;22070;50.922;5.430;2022-07-22T04:47:34;15.80;99.90
36002;DHT22;22070;50.922;5.430;2022-07-22T04:50:00;15.90;99.90
36002;DHT22;22070;50.922;5.430;2022-07-22T04:52:26;16.00;99.90
36002;DHT22;22070;50.922;5.430;2022-07-22T04:54:51;16.10;99.90
36002;DHT22;22070;50.922;5.430;2022-07-22T04:57:17;16.00;99.90
36002;DHT22;22070;50.922;5.430;2022-07-22T04:59:43;15.80;99.90
36002;DHT22;22070;50.922;5.430;2022-07-22T05:02:08;15.70;99.90
36002;DHT22;22070;50.922;5.430;2022-07-22T05:04:34;15.70;99.90
36002;DHT22;22070;50.922;5.430;2022-07-22T05:07:00;15.90;99.90
36002;DHT22;22070;50.922;5.430;2022-07-22T05:09:26;16.00;99.90
36002;DHT22;22070;50.922;5.430;2022-07-22T05:11:51;16.10;99.90
36002;DHT22;22070;50.922;5.430;2022-07-22T05:14:17;16.20;99.90
36002;DHT22;22070;50.922;5.430;2022-07-22T05:16:43;16.20;99.90
36002;DHT22;22070;50.922;5.430;2022-07-22T05:19:08;16.30;99.90
36002;DHT22;22070;50.922;5.430;2022-07-22T05:21:34;16.30;99.90
36002;DHT22;22070;50.922;5.430;2022-07-22T05:24:00;16.30;99.90
36002;DHT22;22070;50.922;5.430;2022-07-22T05:26:26;16.30;99.90
36002;DHT22;22070;50.922;5.430;2022-07-22T05:28:55;16.20;99.90
36002;DHT22;22070;50.922;5.430;2022-07-22T05:31:21;16.20;99.90
36002;DHT22;22070;50.922;5.430;2022-07-22T05:33:46;16.30;99.90
36002;DHT22;22070;50.922;5.430;2022-07-22T05:36:12;16.40;99.90
36002;DHT22;22070;50.922;5.430;2022-07-22T05:38:38;16.50;99.90
36002;DHT22;22070;50.922;5.430;2022-07-22T05:41:03;16.70;99.90
36002;DHT22;22070;50.922;5.430;2022-07-22T05:43:29;16.80;99.90
36002;DHT22;22070;50.922;5.430;2022-07-22T05:45:55;16.80;99.90
36002;DHT22;22070;50.922;5.430;2022-07-22T05:48:20;16.90;99.90
36002;DHT22;22070;50.922;5.430;2022-07-22T05:50:46;17.00;99.90
36002;DHT22;22070;50.922;5.430;2022-07-22T05:53:12;17.20;99.90
36002;DHT22;22070;50.922;5.430;2022-07-22T05:55:37;17.50;99.90
36002;DHT22;22070;50.922;5.430;2022-07-22T05:58:03;17.90;99.90
36002;DHT22;22070;50.922;5.430;2022-07-22T06:00:29;18.00;99.90
36002;DHT22;22070;50.922;5.430;2022-07-22T06:02:54;18.00;99.90
36002;DHT22;22070;50.922;5.430;2022-07-22T06:05:21;17.80;99.90
36002;DHT22;22070;50.922;5.430;2022-07-22T06:07:46;17.70;99.90
36002;DHT22;22070;50.922;5.430;2022-07-22T06:10:12;17.80;99.90
36002;DHT22;22070;50.922;5.430;2022-07-22T06:12:38;17.80;99.90
36002;DHT22;22070;50.922;5.430;2022-07-22T06:15:04;17.90;99.90
36002;DHT22;22070;50.922;5.430;2022-07-22T06:17:30;18.10;99.90
36002;DHT22;22070;50.922;5.430;2022-07-22T06:19:56;17.90;99.90
36002;DHT22;22070;50.922;5.430;2022-07-22T06:22:21;18.00;99.90
36002;DHT22;22070;50.922;5.430;2022-07-22T06:24:48;18.10;99.90
36002;DHT22;22070;50.922;5.430;2022-07-22T06:27:13;18.00;99.90
36002;DHT22;22070;50.922;5.430;2022-07-22T06:29:39;18.10;99.90
36002;DHT22;22070;50.922;5.430;2022-07-22T06:32:06;18.10;99.90
36002;DHT22;22070;50.922;5.430;2022-07-22T06:34:32;18.20;99.90
36002;DHT22;22070;50.922;5.430;2022-07-22T06:36:58;18.30;99.90
36002;DHT22;22070;50.922;5.430;2022-07-22T06:39:24;18.40;99.90
36002;DHT22;22070;50.922;5.430;2022-07-22T06:41:49;18.30;99.90
36002;DHT22;22070;50.922;5.430;2022-07-22T06:44:15;18.50;99.90
36002;DHT22;22070;50.922;5.430;2022-07-22T06:46:41;18.60;99.90
36002;DHT22;22070;50.922;5.430;2022-07-22T06:49:07;18.80;99.90
36002;DHT22;22070;50.922;5.430;2022-07-22T06:51:33;18.90;99.90
36002;DHT22;22070;50.922;5.430;2022-07-22T06:53:59;19.00;99.90
36002;DHT22;22070;50.922;5.430;2022-07-22T06:56:25;19.30;99.90
36002;DHT22;22070;50.922;5.430;2022-07-22T06:58:51;19.30;99.90
36002;DHT22;22070;50.922;5.430;2022-07-22T07:01:16;19.10;99.90
36002;DHT22;22070;50.922;5.430;2022-07-22T07:03:42;19.30;99.90
36002;DHT22;22070;50.922;5.430;2022-07-22T07:06:09;19.40;99.90
36002;DHT22;22070;50.922;5.430;2022-07-22T07:08:39;19.30;99.90
36002;DHT22;22070;50.922;5.430;2022-07-22T07:11:05;19.40;99.90
36002;DHT22;22070;50.922;5.430;2022-07-22T07:13:31;19.10;99.90
36002;DHT22;22070;50.922;5.430;2022-07-22T07:15:57;19.20;99.90
36002;DHT22;22070;50.922;5.430;2022-07-22T07:18:23;19.30;99.90
36002;DHT22;22070;50.922;5.430;2022-07-22T07:20:48;19.40;99.90
36002;DHT22;22070;50.922;5.430;2022-07-22T07:23:14;19.60;99.90
36002;DHT22;22070;50.922;5.430;2022-07-22T07:25:40;19.70;99.90
36002;DHT22;22070;50.922;5.430;2022-07-22T07:28:06;19.60;99.90
36002;DHT22;22070;50.922;5.430;2022-07-22T07:30:31;19.70;99.90
36002;DHT22;22070;50.922;5.430;2022-07-22T07:32:57;19.80;99.90
36002;DHT22;22070;50.922;5.430;2022-07-22T07:35:26;20.00;99.90
36002;DHT22;22070;50.922;5.430;2022-07-22T07:37:52;20.10;99.90
36002;DHT22;22070;50.922;5.430;2022-07-22T07:40:18;20.20;99.90
36002;DHT22;22070;50.922;5.430;2022-07-22T07:42:44;20.10;99.90
36002;DHT22;22070;50.922;5.430;2022-07-22T07:45:10;20.20;99.90
36002;DHT22;22070;50.922;5.430;2022-07-22T07:47:36;20.00;99.90
36002;DHT22;22070;50.922;5.430;2022-07-22T07:50:03;20.10;99.90
36002;DHT22;22070;50.922;5.430;2022-07-22T07:52:29;19.80;99.90
36002;DHT22;22070;50.922;5.430;2022-07-22T07:54:55;19.70;99.90
36002;DHT22;22070;50.922;5.430;2022-07-22T07:57:23;19.20;99.90
36002;DHT22;22070;50.922;5.430;2022-07-22T07:59:49;19.50;99.90
36002;DHT22;22070;50.922;5.430;2022-07-22T08:02:14;19.90;99.90
36002;DHT22;22070;50.922;5.430;2022-07-22T08:04:40;20.20;99.90
36002;DHT22;22070;50.922;5.430;2022-07-22T08:07:06;20.40;99.90
36002;DHT22;22070;50.922;5.430;2022-07-22T08:09:33;20.30;99.90
36002;DHT22;22070;50.922;5.430;2022-07-22T08:12:00;20.30;99.90
36002;DHT22;22070;50.922;5.430;2022-07-22T08:14:26;20.50;99.90
36002;DHT22;22070;50.922;5.430;2022-07-22T08:16:52;20.60;99.90
36002;DHT22;22070;50.922;5.430;2022-07-22T08:19:18;20.40;99.90
36002;DHT22;22070;50.922;5.430;2022-07-22T08:21:44;20.40;99.90
36002;DHT22;22070;50.922;5.430;2022-07-22T08:24:10;20.30;99.90
36002;DHT22;22070;50.922;5.430;2022-07-22T08:26:36;20.30;99.90
36002;DHT22;22070;50.922;5.430;2022-07-22T08:29:02;20.60;99.90
36002;DHT22;22070;50.922;5.430;2022-07-22T08:31:28;21.00;99.90
36002;DHT22;22070;50.922;5.430;2022-07-22T08:33:53;20.80;99.90
36002;DHT22;22070;50.922;5.430;2022-07-22T08:36:19;20.80;99.90
36002;DHT22;22070;50.922;5.430;2022-07-22T08:38:45;20.60;99.90
36002;DHT22;22070;50.922;5.430;2022-07-22T08:41:11;20.70;99.90
36002;DHT22;22070;50.922;5.430;2022-07-22T08:43:38;21.00;99.90
36002;DHT22;22070;50.922;5.430;2022-07-22T08:46:09;21.30;99.90
36002;DHT22;22070;50.922;5.430;2022-07-22T08:48:37;21.10;99.90
36002;DHT22;22070;50.922;5.430;2022-07-22T08:51:02;21.10;99.90
36002;DHT22;22070;50.922;5.430;2022-07-22T08:53:28;21.50;99.90
36002;DHT22;22070;50.922;5.430;2022-07-22T08:55:54;21.50;99.90
36002;DHT22;22070;50.922;5.430;2022-07-22T08:58:19;21.30;99.90
36002;DHT22;22070;50.922;5.430;2022-07-22T09:00:45;21.30;99.90
36002;DHT22;22070;50.922;5.430;2022-07-22T09:03:18;21.10;99.90
36002;DHT22;22070;50.922;5.430;2022-07-22T09:05:46;21.20;99.90
36002;DHT22;22070;50.922;5.430;2022-07-22T09:08:11;21.50;99.90
36002;DHT22;22070;50.922;5.430;2022-07-22T09:10:38;21.40;99.90
36002;DHT22;22070;50.922;5.430;2022-07-22T09:13:06;21.60;99.90
36002;DHT22;22070;50.922;5.430;2022-07-22T09:15:37;21.80;99.90
36002;DHT22;22070;50.922;5.430;2022-07-22T09:18:03;21.90;99.90
36002;DHT22;22070;50.922;5.430;2022-07-22T09:20:30;22.00;99.90
36002;DHT22;22070;50.922;5.430;2022-07-22T09:22:56;22.20;99.90
36002;DHT22;22070;50.922;5.430;2022-07-22T09:25:23;22.00;99.90
36002;DHT22;22070;50.922;5.430;2022-07-22T09:27:50;22.00;99.90
36002;DHT22;22070;50.922;5.430;2022-07-22T09:30:25;21.80;99.90
36002;DHT22;22070;50.922;5.430;2022-07-22T09:32:52;22.20;99.90
36002;DHT22;22070;50.922;5.430;2022-07-22T09:35:19;22.00;99.90
36002;DHT22;22070;50.922;5.430;2022-07-22T09:37:50;21.90;99.90
36002;DHT22;22070;50.922;5.430;2022-07-22T09:40:18;21.90;99.90
36002;DHT22;22070;50.922;5.430;2022-07-22T09:45:16;22.20;99.90
36002;DHT22;22070;50.922;5.430;2022-07-22T09:47:43;22.40;99.90
36002;DHT22;22070;50.922;5.430;2022-07-22T09:50:17;22.00;99.90
36002;DHT22;22070;50.922;5.430;2022-07-22T09:52:44;21.80;99.90
36002;DHT22;22070;50.922;5.430;2022-07-22T09:55:11;21.60;99.90
36002;DHT22;22070;50.922;5.430;2022-07-22T09:57:38;21.80;99.90
36002;DHT22;22070;50.922;5.430;2022-07-22T10:00:04;22.00;99.90
36002;DHT22;22070;50.922;5.430;2022-07-22T10:02:36;22.30;99.90
36002;DHT22;22070;50.922;5.430;2022-07-22T10:05:04;22.70;99.90
36002;DHT22;22070;50.922;5.430;2022-07-22T10:07:30;22.80;99.90
36002;DHT22;22070;50.922;5.430;2022-07-22T10:09:56;22.60;99.90
36002;DHT22;22070;50.922;5.430;2022-07-22T10:12:23;22.40;99.90
36002;DHT22;22070;50.922;5.430;2022-07-22T10:14:48;22.20;99.90
36002;DHT22;22070;50.922;5.430;2022-07-22T10:17:14;22.40;99.90
36002;DHT22;22070;50.922;5.430;2022-07-22T10:19:40;22.40;99.90
36002;DHT22;22070;50.922;5.430;2022-07-22T10:25:08;22.80;99.90
36002;DHT22;22070;50.922;5.430;2022-07-22T10:30:25;23.70;99.90
36002;DHT22;22070;50.922;5.430;2022-07-22T10:33:13;23.90;99.90
36002;DHT22;22070;50.922;5.430;2022-07-22T10:38:24;24.10;99.90
36002;DHT22;22070;50.922;5.430;2022-07-22T10:40:55;24.00;99.90
36002;DHT22;22070;50.922;5.430;2022-07-22T10:43:26;23.60;99.90
36002;DHT22;22070;50.922;5.430;2022-07-22T10:48:22;23.40;99.90
36002;DHT22;22070;50.922;5.430;2022-07-22T10:53:46;23.50;99.90
36002;DHT22;22070;50.922;5.430;2022-07-22T10:58:46;23.60;99.90
36002;DHT22;22070;50.922;5.430;2022-07-22T11:01:14;23.90;99.90
36002;DHT22;22070;50.922;5.430;2022-07-22T11:03:41;24.20;99.90
36002;DHT22;22070;50.922;5.430;2022-07-22T11:06:14;24.10;99.90
36002;DHT22;22070;50.922;5.430;2022-07-22T11:08:42;24.30;99.90
36002;DHT22;22070;50.922;5.430;2022-07-22T11:11:08;23.90;99.90
36002;DHT22;22070;50.922;5.430;2022-07-22T11:13:35;23.60;99.90
36002;DHT22;22070;50.922;5.430;2022-07-22T11:16:24;23.80;99.90
36002;DHT22;22070;50.922;5.430;2022-07-22T11:18:57;24.10;99.90
36002;DHT22;22070;50.922;5.430;2022-07-22T11:21:26;24.60;99.90
36002;DHT22;22070;50.922;5.430;2022-07-22T11:23:54;24.50;99.90
36002;DHT22;22070;50.922;5.430;2022-07-22T11:26:36;24.60;99.90
36002;DHT22;22070;50.922;5.430;2022-07-22T11:29:03;24.70;99.90
36002;DHT22;22070;50.922;5.430;2022-07-22T11:31:28;24.20;99.90
36002;DHT22;22070;50.922;5.430;2022-07-22T11:34:08;24.30;99.90
36002;DHT22;22070;50.922;5.430;2022-07-22T11:36:35;24.20;99.90
36002;DHT22;22070;50.922;5.430;2022-07-22T11:39:02;24.30;99.90
36002;DHT22;22070;50.922;5.430;2022-07-22T11:41:29;25.00;99.90
36002;DHT22;22070;50.922;5.430;2022-07-22T11:43:57;25.40;99.90
36002;DHT22;22070;50.922;5.430;2022-07-22T11:46:23;25.40;99.90
36002;DHT22;22070;50.922;5.430;2022-07-22T11:48:52;25.70;99.90
36002;DHT22;22070;50.922;5.430;2022-07-22T11:51:18;25.70;99.90
36002;DHT22;22070;50.922;5.430;2022-07-22T11:53:43;25.70;99.90
36002;DHT22;22070;50.922;5.430;2022-07-22T11:56:10;26.20;99.90
36002;DHT22;22070;50.922;5.430;2022-07-22T11:58:42;26.40;99.90
36002;DHT22;22070;50.922;5.430;2022-07-22T12:01:10;26.60;99.90
36002;DHT22;22070;50.922;5.430;2022-07-22T12:03:38;26.00;99.90
36002;DHT22;22070;50.922;5.430;2022-07-22T12:06:06;25.50;99.90
36002;DHT22;22070;50.922;5.430;2022-07-22T12:08:34;25.60;99.90
36002;DHT22;22070;50.922;5.430;2022-07-22T12:11:01;25.90;99.90
36002;DHT22;22070;50.922;5.430;2022-07-22T12:13:30;26.30;99.90
36002;DHT22;22070;50.922;5.430;2022-07-22T12:15:57;26.80;99.90
36002;DHT22;22070;50.922;5.430;2022-07-22T12:18:24;27.10;99.90
36002;DHT22;22070;50.922;5.430;2022-07-22T12:20:51;26.90;99.90
36002;DHT22;22070;50.922;5.430;2022-07-22T12:23:17;27.30;99.90
36002;DHT22;22070;50.922;5.430;2022-07-22T12:25:53;27.70;99.90
36002;DHT22;22070;50.922;5.430;2022-07-22T12:28:19;28.30;99.90
36002;DHT22;22070;50.922;5.430;2022-07-22T12:30:44;28.30;99.90
36002;DHT22;22070;50.922;5.430;2022-07-22T12:33:17;28.00;99.90
36002;DHT22;22070;50.922;5.430;2022-07-22T12:35:44;27.60;99.90
36002;DHT22;22070;50.922;5.430;2022-07-22T12:38:10;27.10;99.90
36002;DHT22;22070;50.922;5.430;2022-07-22T12:40:36;27.50;99.90
36002;DHT22;22070;50.922;5.430;2022-07-22T12:43:03;27.50;99.90
36002;DHT22;22070;50.922;5.430;2022-07-22T12:45:29;27.60;99.90
36002;DHT22;22070;50.922;5.430;2022-07-22T12:48:00;27.70;99.90
36002;DHT22;22070;50.922;5.430;2022-07-22T12:55:23;26.00;99.90
36002;DHT22;22070;50.922;5.430;2022-07-22T12:57:49;26.20;99.90
36002;DHT22;22070;50.922;5.430;2022-07-22T13:00:23;26.00;99.90
36002;DHT22;22070;50.922;5.430;2022-07-22T13:02:49;26.30;99.90
36002;DHT22;22070;50.922;5.430;2022-07-22T13:05:15;26.70;99.90
36002;DHT22;22070;50.922;5.430;2022-07-22T13:07:42;26.70;99.90
36002;DHT22;22070;50.922;5.430;2022-07-22T13:10:08;27.00;99.90
36002;DHT22;22070;50.922;5.430;2022-07-22T13:12:34;27.60;99.90
36002;DHT22;22070;50.922;5.430;2022-07-22T13:14:59;27.60;99.90
36002;DHT22;22070;50.922;5.430;2022-07-22T13:17:25;27.70;99.90
36002;DHT22;22070;50.922;5.430;2022-07-22T13:19:50;27.00;99.90
36002;DHT22;22070;50.922;5.430;2022-07-22T13:22:16;26.80;99.90
36002;DHT22;22070;50.922;5.430;2022-07-22T13:24:42;26.70;99.90
36002;DHT22;22070;50.922;5.430;2022-07-22T13:27:07;26.60;99.90
36002;DHT22;22070;50.922;5.430;2022-07-22T13:29:33;26.80;99.90
36002;DHT22;22070;50.922;5.430;2022-07-22T13:31:59;26.70;99.90
36002;DHT22;22070;50.922;5.430;2022-07-22T13:34:24;26.60;99.90
36002;DHT22;22070;50.922;5.430;2022-07-22T13:36:50;27.00;99.90
36002;DHT22;22070;50.922;5.430;2022-07-22T13:39:17;27.70;99.90
36002;DHT22;22070;50.922;5.430;2022-07-22T13:41:43;27.40;99.90
36002;DHT22;22070;50.922;5.430;2022-07-22T13:44:08;26.60;99.90
36002;DHT22;22070;50.922;5.430;2022-07-22T13:46:35;27.10;99.90
36002;DHT22;22070;50.922;5.430;2022-07-22T13:49:00;27.60;99.90
36002;DHT22;22070;50.922;5.430;2022-07-22T13:51:26;28.50;99.90
36002;DHT22;22070;50.922;5.430;2022-07-22T13:53:52;29.10;99.90
36002;DHT22;22070;50.922;5.430;2022-07-22T13:56:17;29.00;99.90
36002;DHT22;22070;50.922;5.430;2022-07-22T13:58:44;28.60;99.90
36002;DHT22;22070;50.922;5.430;2022-07-22T14:01:10;29.00;99.90
36002;DHT22;22070;50.922;5.430;2022-07-22T14:03:36;29.40;99.90
36002;DHT22;22070;50.922;5.430;2022-07-22T14:06:03;29.50;99.90
36002;DHT22;22070;50.922;5.430;2022-07-22T14:08:28;29.50;99.90
36002;DHT22;22070;50.922;5.430;2022-07-22T14:10:54;29.80;99.90
36002;DHT22;22070;50.922;5.430;2022-07-22T14:13:20;30.30;99.90
36002;DHT22;22070;50.922;5.430;2022-07-22T14:15:45;30.20;99.90
36002;DHT22;22070;50.922;5.430;2022-07-22T14:18:11;29.30;99.90
36002;DHT22;22070;50.922;5.430;2022-07-22T14:20:36;29.00;99.90
36002;DHT22;22070;50.922;5.430;2022-07-22T14:23:03;29.00;99.90
36002;DHT22;22070;50.922;5.430;2022-07-22T14:25:31;28.70;99.90
36002;DHT22;22070;50.922;5.430;2022-07-22T14:27:56;29.00;99.90
36002;DHT22;22070;50.922;5.430;2022-07-22T14:30:22;28.90;99.90
36002;DHT22;22070;50.922;5.430;2022-07-22T14:32:48;29.30;99.90
36002;DHT22;22070;50.922;5.430;2022-07-22T14:35:14;29.50;99.90
36002;DHT22;22070;50.922;5.430;2022-07-22T14:37:40;29.50;99.90
36002;DHT22;22070;50.922;5.430;2022-07-22T14:40:06;29.20;99.90
36002;DHT22;22070;50.922;5.430;2022-07-22T14:42:31;29.30;99.90
36002;DHT22;22070;50.922;5.430;2022-07-22T14:44:57;29.60;99.90
36002;DHT22;22070;50.922;5.430;2022-07-22T14:47:23;29.90;99.90
36002;DHT22;22070;50.922;5.430;2022-07-22T14:49:48;30.10;99.90
36002;DHT22;22070;50.922;5.430;2022-07-22T14:52:14;30.30;99.90
36002;DHT22;22070;50.922;5.430;2022-07-22T14:54:40;30.00;99.90
36002;DHT22;22070;50.922;5.430;2022-07-22T14:57:05;29.90;99.90
36002;DHT22;22070;50.922;5.430;2022-07-22T14:59:31;29.60;99.90
36002;DHT22;22070;50.922;5.430;2022-07-22T15:01:56;28.50;99.90
36002;DHT22;22070;50.922;5.430;2022-07-22T15:04:22;28.90;99.90
36002;DHT22;22070;50.922;5.430;2022-07-22T15:06:48;29.20;99.90
36002;DHT22;22070;50.922;5.430;2022-07-22T15:09:13;29.90;99.90
36002;DHT22;22070;50.922;5.430;2022-07-22T15:11:39;30.10;99.90
36002;DHT22;22070;50.922;5.430;2022-07-22T15:14:04;30.10;99.90
36002;DHT22;22070;50.922;5.430;2022-07-22T15:16:30;30.10;99.90
36002;DHT22;22070;50.922;5.430;2022-07-22T15:18:56;29.80;99.90
36002;DHT22;22070;50.922;5.430;2022-07-22T15:21:21;29.00;99.90
36002;DHT22;22070;50.922;5.430;2022-07-22T15:23:47;29.20;99.90
36002;DHT22;22070;50.922;5.430;2022-07-22T15:26:13;29.70;99.90
36002;DHT22;22070;50.922;5.430;2022-07-22T15:28:39;29.80;99.90
36002;DHT22;22070;50.922;5.430;2022-07-22T15:31:05;29.80;99.90
36002;DHT22;22070;50.922;5.430;2022-07-22T15:33:32;29.60;99.90
36002;DHT22;22070;50.922;5.430;2022-07-22T15:35:58;29.80;99.90
36002;DHT22;22070;50.922;5.430;2022-07-22T15:38:24;30.10;99.90
36002;DHT22;22070;50.922;5.430;2022-07-22T15:40:49;30.00;99.90
36002;DHT22;22070;50.922;5.430;2022-07-22T15:43:15;30.50;99.90
36002;DHT22;22070;50.922;5.430;2022-07-22T15:45:41;30.40;99.90
36002;DHT22;22070;50.922;5.430;2022-07-22T15:48:06;29.80;99.90